Time;durP1;ratioP1;P1;durP2;ratioP2;P2;SDS_P1;SDS_P2;PMS_P1;PMS_P2;Temp;Humidity;BMP_temperature;BMP_pressure;BME280_temperature;BME280_humidity;BME280_pressure;Samples;Min_cycle;Max_cycle;Signal;HPM_P1;HPM_P2
2022/05/24 00:01:52;;;;;;;3.95;2.80;;;;;;;;;;5012471;28;20386;-58
2022/05/24 00:04:20;;;;;;;5.35;3.45;;;;;;;;;;5027660;28;20409;-57
2022/05/24 00:06:48;;;;;;;3.80;2.33;;;;;;;;;;5011517;28;20481;-55
2022/05/24 00:09:16;;;;;;;3.92;2.75;;;;;;;;;;5011203;28;20066;-55
2022/05/24 00:11:44;;;;;;;4.90;3.08;;;;;;;;;;5012277;28;20038;-66
2022/05/24 00:14:12;;;;;;;3.70;2.22;;;;;;;;;;5012383;28;20045;-55
2022/05/24 00:16:40;;;;;;;3.20;2.35;;;;;;;;;;5012149;28;20124;-56
2022/05/24 00:19:09;;;;;;;3.63;2.33;;;;;;;;;;5012228;28;20049;-56
2022/05/24 00:21:37;;;;;;;5.82;3.00;;;;;;;;;;5012351;28;20042;-60
2022/05/24 00:24:05;;;;;;;4.47;2.85;;;;;;;;;;5012488;28;20042;-48
2022/05/24 00:26:36;;;;;;;3.42;2.33;;;;;;;;;;5012162;28;20041;-64
2022/05/24 00:29:03;;;;;;;3.15;2.25;;;;;;;;;;5012044;28;20049;-61
2022/05/24 00:31:31;;;;;;;5.22;2.80;;;;;;;;;;5011819;28;20096;-58
2022/05/24 00:33:59;;;;;;;5.03;2.47;;;;;;;;;;5012079;28;20556;-60
2022/05/24 00:36:26;;;;;;;5.85;2.63;;;;;;;;;;5011999;28;20060;-61
2022/05/24 00:38:56;;;;;;;5.82;2.40;;;;;;;;;;5011782;28;20050;-59
2022/05/24 00:41:49;;;;;;;4.43;2.22;;;;;;;;;;5011856;28;20037;-57
2022/05/24 00:44:24;;;;;;;4.88;3.00;;;;;;;;;;5011765;28;20065;-56
2022/05/24 00:46:58;;;;;;;6.05;2.67;;;;;;;;;;5010697;28;20038;-57
2022/05/24 00:49:34;;;;;;;4.28;2.80;;;;;;;;;;5011950;28;20042;-60
2022/05/24 00:52:08;;;;;;;4.22;2.90;;;;;;;;;;5011572;28;20081;-58
2022/05/24 00:54:36;;;;;;;5.90;3.10;;;;;;;;;;5012389;28;20048;-55
2022/05/24 00:57:13;;;;;;;5.93;2.78;;;;;;;;;;5011905;28;20037;-58
2022/05/24 01:00:01;;;;;;;4.50;2.78;;;;;;;;;;5011747;28;20046;-55
2022/05/24 01:02:29;;;;;;;5.55;2.75;;;;;;;;;;5011480;28;20386;-51
2022/05/24 01:04:58;;;;;;;6.53;3.45;;;;;;;;;;5011688;28;20498;-58
2022/05/24 01:07:26;;;;;;;5.55;2.80;;;;;;;;;;5011854;28;20048;-52
2022/05/24 01:10:03;;;;;;;7.82;2.85;;;;;;;;;;5011714;28;20034;-60
2022/05/24 01:12:39;;;;;;;4.55;2.70;;;;;;;;;;5011556;28;20050;-59
2022/05/24 01:15:10;;;;;;;5.63;2.70;;;;;;;;;;5011549;28;20548;-55
2022/05/24 01:17:39;;;;;;;8.57;2.95;;;;;;;;;;5011735;28;20042;-59
2022/05/24 01:20:08;;;;;;;3.58;2.40;;;;;;;;;;5011606;28;20050;-51
2022/05/24 01:23:12;;;;;;;4.05;2.60;;;;;;;;;;5011683;28;20037;-52
2022/05/24 01:25:46;;;;;;;4.10;2.50;;;;;;;;;;5011518;28;20069;-55
2022/05/24 01:28:25;;;;;;;3.72;2.30;;;;;;;;;;5011382;28;20034;-53
2022/05/24 01:30:55;;;;;;;3.90;2.40;;;;;;;;;;5026398;28;20077;-52
2022/05/24 01:36:10;;;;;;;3.95;2.30;;;;;;;;;;5011400;28;20049;-51
2022/05/24 01:38:51;;;;;;;3.95;2.70;;;;;;;;;;5010330;28;20392;-54
2022/05/24 01:41:26;;;;;;;3.60;2.58;;;;;;;;;;5011396;28;20406;-51
2022/05/24 01:43:57;;;;;;;3.13;2.03;;;;;;;;;;5014154;28;20077;-50
2022/05/24 01:46:36;;;;;;;5.25;2.47;;;;;;;;;;5014901;28;20497;-60
2022/05/24 01:49:23;;;;;;;4.75;2.72;;;;;;;;;;5015129;28;20040;-51
2022/05/24 01:51:57;;;;;;;3.78;2.50;;;;;;;;;;5014871;28;20525;-51
2022/05/24 01:54:27;;;;;;;3.60;2.45;;;;;;;;;;5014814;28;20038;-47
2022/05/24 01:57:06;;;;;;;3.53;2.40;;;;;;;;;;5015035;28;20038;-51
2022/05/24 01:59:38;;;;;;;5.68;2.80;;;;;;;;;;5015049;28;20030;-49
2022/05/24 02:02:07;;;;;;;4.15;2.70;;;;;;;;;;5014996;28;20041;-48
2022/05/24 02:04:38;;;;;;;7.40;2.63;;;;;;;;;;5014984;28;20041;-49
2022/05/24 02:07:14;;;;;;;4.55;2.40;;;;;;;;;;5014795;28;20120;-53
2022/05/24 02:09:48;;;;;;;4.25;2.33;;;;;;;;;;5014753;28;20405;-55
2022/05/24 02:12:29;;;;;;;4.32;2.60;;;;;;;;;;5014506;28;20535;-53
2022/05/24 02:15:17;;;;;;;4.75;2.25;;;;;;;;;;5014763;28;20042;-51
2022/05/24 02:18:10;;;;;;;3.30;2.03;;;;;;;;;;5013354;28;20042;-50
2022/05/24 02:20:42;;;;;;;5.18;2.85;;;;;;;;;;5014449;28;20042;-53
2022/05/24 02:23:12;;;;;;;5.38;2.55;;;;;;;;;;5014458;28;20120;-52
2022/05/24 02:25:58;;;;;;;5.28;2.78;;;;;;;;;;5013039;28;20049;-51
2022/05/24 02:28:30;;;;;;;3.67;2.10;;;;;;;;;;5014289;28;20034;-52
2022/05/24 02:31:01;;;;;;;5.68;2.38;;;;;;;;;;5014258;28;20046;-57
2022/05/24 02:33:29;;;;;;;23.02;10.68;;;;;;;;;;5014352;28;20497;-51
2022/05/24 02:35:57;;;;;;;6.55;3.55;;;;;;;;;;5014154;28;20038;-52
2022/05/24 02:38:25;;;;;;;4.40;2.40;;;;;;;;;;5014007;28;20042;-50
2022/05/24 02:43:40;;;;;;;5.47;2.78;;;;;;;;;;5014258;28;20077;-58
2022/05/24 02:46:09;;;;;;;4.85;2.65;;;;;;;;;;5014142;28;20057;-57
2022/05/24 02:48:37;;;;;;;3.10;2.00;;;;;;;;;;5012921;28;20034;-49
2022/05/24 02:51:10;;;;;;;3.78;2.25;;;;;;;;;;5014113;28;20061;-52
2022/05/24 02:53:39;;;;;;;;;;;;;;;;;;5013994;28;20042;-52
2022/05/24 02:56:07;;;;;;;6.97;2.63;;;;;;;;;;5014062;28;19921;-54
2022/05/24 02:58:36;;;;;;;11.75;5.63;;;;;;;;;;5013951;28;20186;-50
2022/05/24 03:01:10;;;;;;;5.03;3.22;;;;;;;;;;5013559;28;20057;-50
2022/05/24 03:03:38;;;;;;;5.38;2.30;;;;;;;;;;5013795;28;20096;-51
2022/05/24 03:06:05;;;;;;;4.78;2.28;;;;;;;;;;5013756;28;20053;-52
2022/05/24 03:11:18;;;;;;;4.25;2.28;;;;;;;;;;5013488;28;20088;-51
2022/05/24 03:16:31;;;;;;;2.80;1.90;;;;;;;;;;5013353;28;20408;-52
2022/05/24 03:18:58;;;;;;;4.28;1.90;;;;;;;;;;5013255;28;20544;-63
2022/05/24 03:21:26;;;;;;;21.33;10.63;;;;;;;;;;5013334;28;20065;-51
2022/05/24 03:23:54;;;;;;;12.23;5.38;;;;;;;;;;5013249;28;20508;-58
2022/05/24 03:26:21;;;;;;;3.67;2.20;;;;;;;;;;5013370;28;20050;-54
2022/05/24 03:28:54;;;;;;;5.03;2.00;;;;;;;;;;5013237;28;20460;-54
2022/05/24 03:31:22;;;;;;;3.58;1.90;;;;;;;;;;5013017;28;20084;-56
2022/05/24 03:33:51;;;;;;;3.63;2.00;;;;;;;;;;5013135;28;20052;-55
2022/05/24 03:36:20;;;;;;;4.85;1.60;;;;;;;;;;5012929;28;20037;-54
2022/05/24 03:38:48;;;;;;;5.65;1.80;;;;;;;;;;5012523;28;20393;-56
2022/05/24 03:41:15;;;;;;;3.78;1.52;;;;;;;;;;5012725;28;20038;-54
2022/05/24 03:43:42;;;;;;;4.32;1.80;;;;;;;;;;5012803;28;20088;-56
2022/05/24 03:46:11;;;;;;;4.82;1.85;;;;;;;;;;5012898;28;20041;-55
2022/05/24 03:48:39;;;;;;;3.42;1.70;;;;;;;;;;5013030;28;20046;-56
2022/05/24 03:51:06;;;;;;;5.70;1.85;;;;;;;;;;5012728;28;20041;-54
2022/05/24 03:53:34;;;;;;;3.00;1.70;;;;;;;;;;5012765;28;20042;-55
2022/05/24 03:56:02;;;;;;;7.07;4.38;;;;;;;;;;5012707;28;20081;-52
2022/05/24 03:58:30;;;;;;;50.95;18.77;;;;;;;;;;5012439;28;20046;-56
2022/05/24 04:00:59;;;;;;;8.00;4.15;;;;;;;;;;5012628;28;20046;-53
2022/05/24 04:03:26;;;;;;;5.68;2.30;;;;;;;;;;5012493;28;20056;-54
2022/05/24 04:05:54;;;;;;;2.35;1.40;;;;;;;;;;5011603;28;20046;-54
2022/05/24 04:08:26;;;;;;;2.65;1.60;;;;;;;;;;5012361;28;20045;-53
2022/05/24 04:11:01;;;;;;;4.93;1.42;;;;;;;;;;5012342;28;20042;-55
2022/05/24 04:13:29;;;;;;;2.97;1.80;;;;;;;;;;5012525;28;20042;-55
2022/05/24 04:15:57;;;;;;;4.45;1.80;;;;;;;;;;5012318;28;20410;-52
2022/05/24 04:18:25;;;;;;;3.38;1.55;;;;;;;;;;5016275;28;20049;-61
2022/05/24 04:20:53;;;;;;;3.00;1.75;;;;;;;;;;5012367;28;20042;-60
2022/05/24 04:23:22;;;;;;;4.25;1.70;;;;;;;;;;5012183;28;20046;-54
2022/05/24 04:25:49;;;;;;;2.72;1.52;;;;;;;;;;5012525;28;20042;-53
2022/05/24 04:28:20;;;;;;;3.08;1.70;;;;;;;;;;5011916;28;20042;-56
2022/05/24 04:30:48;;;;;;;1.88;1.23;;;;;;;;;;5011923;28;20042;-55
2022/05/24 04:33:16;;;;;;;3.30;1.58;;;;;;;;;;5011837;28;20077;-55
2022/05/24 04:35:46;;;;;;;19.92;10.15;;;;;;;;;;5011996;28;20049;-56
2022/05/24 04:38:13;;;;;;;31.70;16.00;;;;;;;;;;5011883;28;20038;-55
2022/05/24 04:43:28;;;;;;;4.03;1.42;;;;;;;;;;5011894;28;20080;-55
2022/05/24 04:45:56;;;;;;;3.60;1.48;;;;;;;;;;5011901;28;20069;-54
2022/05/24 04:48:24;;;;;;;2.60;1.40;;;;;;;;;;5011681;28;20034;-55
2022/05/24 04:50:53;;;;;;;2.40;1.40;;;;;;;;;;5011725;28;20073;-55
2022/05/24 04:53:21;;;;;;;2.60;1.30;;;;;;;;;;5011798;28;20049;-54
2022/05/24 04:55:51;;;;;;;2.72;1.30;;;;;;;;;;5011537;28;20086;-55
2022/05/24 04:58:20;;;;;;;2.42;1.20;;;;;;;;;;5011704;28;20485;-55
2022/05/24 05:00:48;;;;;;;4.22;1.33;;;;;;;;;;5011754;28;20117;-58
2022/05/24 05:03:18;;;;;;;1.67;1.00;;;;;;;;;;5010481;28;20053;-54
2022/05/24 05:05:48;;;;;;;8.52;3.45;;;;;;;;;;5011428;28;20037;-52
2022/05/24 05:08:16;;;;;;;3.10;1.33;;;;;;;;;;5011485;28;20049;-54
2022/05/24 05:10:43;;;;;;;2.28;1.17;;;;;;;;;;5011485;28;20109;-53
2022/05/24 05:13:15;;;;;;;1.90;1.10;;;;;;;;;;5011564;28;20485;-52
2022/05/24 05:15:43;;;;;;;2.72;1.30;;;;;;;;;;5011483;28;20124;-55
2022/05/24 05:18:13;;;;;;;3.63;1.30;;;;;;;;;;5015315;28;20064;-54
2022/05/24 05:20:41;;;;;;;2.33;1.00;;;;;;;;;;5015464;28;20128;-54
2022/05/24 05:23:11;;;;;;;3.63;1.15;;;;;;;;;;5015826;28;20409;-52
2022/05/24 05:25:41;;;;;;;2.20;1.10;;;;;;;;;;5015767;28;20045;-54
2022/05/24 05:28:10;;;;;;;1.65;0.80;;;;;;;;;;5015657;28;20050;-54
2022/05/24 05:33:24;;;;;;;2.72;1.00;;;;;;;;;;5015149;28;20069;-53
2022/05/24 05:35:54;;;;;;;2.33;0.90;;;;;;;;;;5015207;28;20048;-54
2022/05/24 05:38:21;;;;;;;2.40;1.10;;;;;;;;;;5015212;28;20034;-55
2022/05/24 05:40:53;;;;;;;1.50;0.90;;;;;;;;;;5014998;28;20045;-56
2022/05/24 05:43:23;;;;;;;2.38;1.33;;;;;;;;;;5015121;28;20133;-51
2022/05/24 05:45:56;;;;;;;1.30;0.70;;;;;;;;;;5014962;28;20045;-55
2022/05/24 05:48:25;;;;;;;2.40;1.08;;;;;;;;;;5015167;28;20465;-54
2022/05/24 05:50:52;;;;;;;3.28;0.95;;;;;;;;;;5017077;28;20068;-70
2022/05/24 05:53:20;;;;;;;11.18;4.25;;;;;;;;;;5030555;28;20130;-56
2022/05/24 05:55:48;;;;;;;30.05;13.77;;;;;;;;;;4994860;28;20375;-60
2022/05/24 05:58:15;;;;;;;3.75;1.70;;;;;;;;;;4994909;28;20096;-54
2022/05/24 06:00:48;;;;;;;2.22;1.10;;;;;;;;;;4995135;28;20039;-57
2022/05/24 06:03:16;;;;;;;2.67;1.00;;;;;;;;;;4995148;28;20502;-54
2022/05/24 06:05:46;;;;;;;1.48;0.70;;;;;;;;;;4995109;28;20035;-55
2022/05/24 06:08:13;;;;;;;2.60;1.30;;;;;;;;;;4994873;28;20081;-55
2022/05/24 06:10:47;;;;;;;2.80;1.13;;;;;;;;;;4995381;28;20482;-55
2022/05/24 06:13:14;;;;;;;2.85;1.08;;;;;;;;;;4994987;28;20042;-56
2022/05/24 06:15:47;;;;;;;2.25;1.00;;;;;;;;;;5009728;28;20041;-54
2022/05/24 06:18:15;;;;;;;1.77;0.95;;;;;;;;;;4994758;28;20387;-54
2022/05/24 06:20:42;;;;;;;2.13;1.00;;;;;;;;;;4994643;28;20046;-54
2022/05/24 06:23:09;;;;;;;1.90;0.93;;;;;;;;;;4994977;28;20047;-54
2022/05/24 06:25:39;;;;;;;1.90;0.90;;;;;;;;;;4994540;28;20039;-54
2022/05/24 06:28:06;;;;;;;2.42;0.95;;;;;;;;;;4994003;28;20054;-55
2022/05/24 06:30:34;;;;;;;2.08;0.98;;;;;;;;;;5009314;28;20038;-51
2022/05/24 06:33:01;;;;;;;3.42;1.10;;;;;;;;;;5014140;28;20505;-53
2022/05/24 06:35:28;;;;;;;2.22;1.15;;;;;;;;;;5014201;28;20429;-54
2022/05/24 06:37:55;;;;;;;3.13;1.20;;;;;;;;;;5013887;28;20055;-55
2022/05/24 06:40:23;;;;;;;2.33;0.98;;;;;;;;;;5013926;28;20517;-53
2022/05/24 06:42:50;;;;;;;30.27;12.93;;;;;;;;;;5014049;28;20401;-54
2022/05/24 06:45:20;;;;;;;32.13;15.45;;;;;;;;;;5014036;28;20088;-54
2022/05/24 06:47:50;;;;;;;7.70;1.55;;;;;;;;;;5013925;28;20088;-53
2022/05/24 06:50:20;;;;;;;1.60;0.80;;;;;;;;;;5012335;28;20501;-57
2022/05/24 06:52:55;;;;;;;1.90;1.02;;;;;;;;;;5013823;28;21743;-55
2022/05/24 06:55:23;;;;;;;2.00;1.00;;;;;;;;;;5013786;28;20044;-53
2022/05/24 06:57:51;;;;;;;1.20;0.80;;;;;;;;;;5013625;28;20038;-53
2022/05/24 07:03:14;;;;;;;2.25;1.10;;;;;;;;;;5013509;28;20105;-53
2022/05/24 07:05:44;;;;;;;4.95;1.13;;;;;;;;;;5013630;28;20042;-57
2022/05/24 07:08:17;;;;;;;2.22;1.02;;;;;;;;;;5013215;28;20501;-55
2022/05/24 07:10:44;;;;;;;10.82;6.60;;;;;;;;;;5013370;28;20493;-54
2022/05/24 07:13:16;;;;;;;7.45;3.97;;;;;;;;;;5013398;28;20081;-55
2022/05/24 07:15:45;;;;;;;4.82;1.65;;;;;;;;;;5012940;28;20453;-55
2022/05/24 07:18:13;;;;;;;1.75;0.90;;;;;;;;;;5013270;28;20048;-54
2022/05/24 07:20:41;;;;;;;1.13;0.80;;;;;;;;;;5013270;28;20439;-55
2022/05/24 07:23:16;;;;;;;3.40;1.00;;;;;;;;;;5013134;28;20104;-62
2022/05/24 07:25:45;;;;;;;1.90;0.90;;;;;;;;;;5012965;28;20041;-56
2022/05/24 07:28:22;;;;;;;4.47;0.90;;;;;;;;;;5013078;28;20045;-55
2022/05/24 07:30:50;;;;;;;2.85;1.25;;;;;;;;;;5013011;28;20038;-53
2022/05/24 07:33:17;;;;;;;3.42;1.58;;;;;;;;;;5011522;28;20046;-54
2022/05/24 07:35:45;;;;;;;3.50;1.13;;;;;;;;;;5012974;28;20049;-54
2022/05/24 07:38:12;;;;;;;2.05;1.00;;;;;;;;;;5012757;28;20050;-57
2022/05/24 07:46:14;;;;;;;1.77;0.80;;;;;;;;;;5012891;28;20449;-56
2022/05/24 07:48:42;;;;;;;2.05;1.00;;;;;;;;;;5012607;28;20046;-55
2022/05/24 07:51:09;;;;;;;4.03;1.50;;;;;;;;;;5012959;28;20053;-56
2022/05/24 07:53:40;;;;;;;2.53;1.00;;;;;;;;;;5012870;28;20080;-55
2022/05/24 07:56:10;;;;;;;2.85;1.00;;;;;;;;;;5012761;28;20038;-54
2022/05/24 07:58:37;;;;;;;2.90;0.95;;;;;;;;;;5012539;28;20041;-55
2022/05/24 08:01:04;;;;;;;3.00;1.10;;;;;;;;;;5012367;28;20034;-53
2022/05/24 08:03:32;;;;;;;1.55;1.10;;;;;;;;;;5012447;28;20046;-54
2022/05/24 08:06:00;;;;;;;2.50;0.90;;;;;;;;;;5012382;28;20041;-54
2022/05/24 08:08:27;;;;;;;2.20;1.10;;;;;;;;;;5012360;28;20447;-58
2022/05/24 08:10:55;;;;;;;1.50;0.93;;;;;;;;;;5012303;28;20072;-53
2022/05/24 08:13:22;;;;;;;2.45;1.00;;;;;;;;;;5012442;28;20046;-57
2022/05/24 08:15:51;;;;;;;23.05;12.23;;;;;;;;;;5012106;28;20046;-57
2022/05/24 08:18:20;;;;;;;39.30;19.52;;;;;;;;;;5012102;28;20493;-55
2022/05/24 08:20:48;;;;;;;2.60;1.30;;;;;;;;;;5011987;28;20077;-55
2022/05/24 08:23:18;;;;;;;3.83;1.20;;;;;;;;;;5012138;28;20111;-54
2022/05/24 08:25:45;;;;;;;2.00;1.00;;;;;;;;;;5012163;28;20038;-54
2022/05/24 08:28:12;;;;;;;1.45;0.95;;;;;;;;;;5011862;28;20041;-54
2022/05/24 08:30:41;;;;;;;2.75;1.25;;;;;;;;;;4996517;28;20039;-55
2022/05/24 08:33:12;;;;;;;2.10;0.95;;;;;;;;;;4992617;28;20552;-54
2022/05/24 08:35:39;;;;;;;1.52;0.90;;;;;;;;;;4992639;28;20497;-52
2022/05/24 08:38:07;;;;;;;3.33;1.30;;;;;;;;;;4992448;28;20043;-53
2022/05/24 08:40:37;;;;;;;0.75;0.70;;;;;;;;;;4992054;28;20133;-49
2022/05/24 08:43:39;;;;;;;2.05;1.10;;;;;;;;;;4992293;28;20406;-51
2022/05/24 08:49:20;;;;;;;2.17;0.90;;;;;;;;;;4991830;28;20160;-54
2022/05/24 08:51:51;;;;;;;1.90;0.98;;;;;;;;;;4991877;28;20042;-55
2022/05/24 08:54:26;;;;;;;2.25;0.90;;;;;;;;;;4991805;28;20031;-55
2022/05/24 08:57:04;;;;;;;2.25;1.00;;;;;;;;;;4992042;28;20125;-58
2022/05/24 09:00:10;;;;;;;1.35;0.90;;;;;;;;;;4991837;28;20370;-53
2022/05/24 09:02:44;;;;;;;1.88;0.75;;;;;;;;;;4981845;28;20120;-55
2022/05/24 09:05:36;;;;;;;2.10;1.10;;;;;;;;;;4992136;28;20057;-56
2022/05/24 09:08:12;;;;;;;2.55;1.00;;;;;;;;;;4991635;28;20153;-55
2022/05/24 09:11:14;;;;;;;2.67;0.85;;;;;;;;;;4992147;28;20041;-52
2022/05/24 09:14:06;;;;;;;3.88;1.02;;;;;;;;;;4992014;28;20038;-56
2022/05/24 09:16:38;;;;;;;1.58;0.93;;;;;;;;;;4991628;28;20117;-56
2022/05/24 09:19:20;;;;;;;2.58;1.05;;;;;;;;;;4991442;28;20524;-54
2022/05/24 09:21:52;;;;;;;1.33;0.90;;;;;;;;;;4997387;28;20081;-59
2022/05/24 09:24:31;;;;;;;1.90;0.93;;;;;;;;;;5011002;28;20048;-53
2022/05/24 09:27:11;;;;;;;1.83;0.82;;;;;;;;;;5011329;28;20108;-54
2022/05/24 09:30:02;;;;;;;1.13;0.75;;;;;;;;;;5011359;28;20054;-54
2022/05/24 09:32:36;;;;;;;2.55;1.00;;;;;;;;;;5011439;28;20050;-54
2022/05/24 09:35:16;;;;;;;3.13;0.90;;;;;;;;;;5011246;28;20053;-54
2022/05/24 09:38:14;;;;;;;2.13;0.95;;;;;;;;;;5011252;28;20082;-52
2022/05/24 09:40:52;;;;;;;5.22;1.00;;;;;;;;;;5009379;28;20050;-56
2022/05/24 09:43:26;;;;;;;2.13;1.08;;;;;;;;;;5010880;28;20420;-50
2022/05/24 09:46:04;;;;;;;2.53;1.35;;;;;;;;;;5011140;28;20046;-48
2022/05/24 09:48:35;;;;;;;1.50;0.85;;;;;;;;;;5011008;28;20045;-51
2022/05/24 09:51:09;;;;;;;16.45;6.18;;;;;;;;;;5010971;28;20038;-48
2022/05/24 09:53:49;;;;;;;12.20;7.25;;;;;;;;;;5011330;28;20048;-52
2022/05/24 09:56:33;;;;;;;5.72;2.33;;;;;;;;;;5011139;28;20033;-49
2022/05/24 09:59:06;;;;;;;1.55;0.95;;;;;;;;;;5011083;28;20042;-50
2022/05/24 10:01:43;;;;;;;2.05;0.90;;;;;;;;;;5010964;28;20042;-53
2022/05/24 10:04:19;;;;;;;2.55;1.30;;;;;;;;;;5012581;28;20050;-49
2022/05/24 10:07:21;;;;;;;3.15;1.35;;;;;;;;;;5014622;28;20571;-50
2022/05/24 10:10:03;;;;;;;1.25;0.80;;;;;;;;;;5014188;28;20054;-52
2022/05/24 10:12:55;;;;;;;2.00;0.80;;;;;;;;;;5014376;28;20046;-53
2022/05/24 10:15:35;;;;;;;1.95;0.80;;;;;;;;;;5014395;28;20056;-49
2022/05/24 10:18:28;;;;;;;1.00;0.70;;;;;;;;;;5014498;28;20084;-51
2022/05/24 10:21:20;;;;;;;1.42;0.90;;;;;;;;;;5014111;28;20049;-52
2022/05/24 10:23:58;;;;;;;2.10;0.60;;;;;;;;;;5014137;28;20053;-50
2022/05/24 10:26:32;;;;;;;2.88;1.00;;;;;;;;;;5014283;28;20046;-50
2022/05/24 10:29:11;;;;;;;2.80;0.80;;;;;;;;;;5014166;28;20041;-56
2022/05/24 10:31:54;;;;;;;1.52;0.80;;;;;;;;;;5014421;28;20048;-48
2022/05/24 10:40:52;;;;;;;1.85;0.80;;;;;;;;;;5014095;28;20404;-52
2022/05/24 10:43:19;;;;;;;3.43;0.87;;;;;;;;;;5013863;28;20044;-57
2022/05/24 10:45:59;;;;;;;16.45;8.77;;;;;;;;;;5013847;28;20275;-55
2022/05/24 10:48:38;;;;;;;4.05;2.38;;;;;;;;;;5013747;28;20073;-59
2022/05/24 10:51:16;;;;;;;1.65;0.75;;;;;;;;;;5013886;28;20038;-52
2022/05/24 10:53:50;;;;;;;1.23;0.70;;;;;;;;;;5013895;28;20034;-50
2022/05/24 10:56:17;;;;;;;1.15;0.70;;;;;;;;;;5013563;28;20501;-51
2022/05/24 10:58:48;;;;;;;1.70;0.90;;;;;;;;;;5013764;28;20261;-51
2022/05/24 11:01:32;;;;;;;2.35;0.80;;;;;;;;;;5013525;28;20092;-50
2022/05/24 11:04:07;;;;;;;2.55;1.00;;;;;;;;;;5013397;28;20490;-50
2022/05/24 11:06:55;;;;;;;3.00;0.82;;;;;;;;;;5013520;28;20057;-51
2022/05/24 11:09:26;;;;;;;2.50;0.90;;;;;;;;;;5013510;28;20034;-51
2022/05/24 11:12:18;;;;;;;2.08;1.10;;;;;;;;;;5013417;28;20037;-52
2022/05/24 11:14:53;;;;;;;2.10;0.95;;;;;;;;;;5013416;28;20076;-51
2022/05/24 11:17:20;;;;;;;1.00;0.82;;;;;;;;;;5013317;28;20046;-49
2022/05/24 11:19:55;;;;;;;2.85;0.90;;;;;;;;;;5013031;28;20563;-66
2022/05/24 11:22:33;;;;;;;7.03;3.63;;;;;;;;;;5013078;28;20406;-52
2022/05/24 11:25:13;;;;;;;5.25;2.28;;;;;;;;;;5013272;28;20050;-49
2022/05/24 11:27:44;;;;;;;1.52;0.80;;;;;;;;;;5013080;28;20054;-52
2022/05/24 11:30:17;;;;;;;1.92;0.90;;;;;;;;;;5012899;28;20088;-52
2022/05/24 11:32:52;;;;;;;1.88;0.98;;;;;;;;;;5013078;28;20049;-54
2022/05/24 11:35:19;;;;;;;1.67;0.68;;;;;;;;;;5012946;28;20061;-53
2022/05/24 11:37:53;;;;;;;1.98;0.70;;;;;;;;;;5012960;28;20044;-49
2022/05/24 11:40:38;;;;;;;1.67;0.80;;;;;;;;;;5012730;28;20045;-49
2022/05/24 11:43:12;;;;;;;1.85;1.17;;;;;;;;;;5012952;28;20113;-49
2022/05/24 11:45:55;;;;;;;1.50;0.93;;;;;;;;;;5013039;28;20052;-55
2022/05/24 11:48:39;;;;;;;1.57;0.90;;;;;;;;;;5012478;28;20096;-50
2022/05/24 11:51:25;;;;;;;2.20;0.85;;;;;;;;;;5012685;28;20326;-53
2022/05/24 11:53:52;;;;;;;3.58;1.65;;;;;;;;;;5012687;28;20124;-49
2022/05/24 11:56:21;;;;;;;8.48;3.63;;;;;;;;;;5012551;28;20442;-53
2022/05/24 11:59:11;;;;;;;1.90;0.80;;;;;;;;;;5012789;28;20061;-57
2022/05/24 12:01:45;;;;;;;1.90;0.80;;;;;;;;;;5012750;28;20042;-54
2022/05/24 12:10:24;;;;;;;2.13;0.80;;;;;;;;;;5010932;28;20103;-55
2022/05/24 12:13:12;;;;;;;1.02;0.50;;;;;;;;;;5012465;28;20034;-51
2022/05/24 12:15:40;;;;;;;1.10;0.60;;;;;;;;;;5012456;28;20113;-49
2022/05/24 12:18:11;;;;;;;1.50;0.77;;;;;;;;;;5012450;28;20038;-54
2022/05/24 12:20:56;;;;;;;1.50;0.75;;;;;;;;;;5012411;28;20108;-52
2022/05/24 12:23:30;;;;;;;1.17;0.60;;;;;;;;;;5012189;28;20037;-51
2022/05/24 12:26:15;;;;;;;2.25;0.80;;;;;;;;;;5011452;28;20397;-51
2022/05/24 12:28:51;;;;;;;3.05;0.73;;;;;;;;;;5012168;28;20069;-51
2022/05/24 12:31:18;;;;;;;1.63;0.70;;;;;;;;;;4992357;28;20050;-52
2022/05/24 12:33:56;;;;;;;2.45;0.98;;;;;;;;;;4992308;28;20046;-55
2022/05/24 12:36:29;;;;;;;1.30;0.70;;;;;;;;;;4992244;28;20040;-50
2022/05/24 12:39:21;;;;;;;1.58;0.80;;;;;;;;;;4992283;28;20121;-51
2022/05/24 12:41:58;;;;;;;3.97;0.70;;;;;;;;;;4992319;28;20054;-52
2022/05/24 12:44:33;;;;;;;2.03;0.73;;;;;;;;;;4992044;28;20421;-51
2022/05/24 12:47:05;;;;;;;1.98;0.75;;;;;;;;;;4992167;28;20039;-52
2022/05/24 12:49:37;;;;;;;1.05;0.60;;;;;;;;;;4992329;28;20121;-51
2022/05/24 12:52:22;;;;;;;2.33;0.90;;;;;;;;;;4992078;28;20049;-53
2022/05/24 12:54:54;;;;;;;2.25;0.77;;;;;;;;;;4992045;28;20561;-54
2022/05/24 12:57:23;;;;;;;1.23;0.70;;;;;;;;;;4991938;28;20457;-50
2022/05/24 13:00:21;;;;;;;3.58;1.05;;;;;;;;;;4991908;28;20064;-54
2022/05/24 13:02:54;;;;;;;1.42;0.60;;;;;;;;;;4986905;28;20109;-50
2022/05/24 13:05:53;;;;;;;3.08;0.80;;;;;;;;;;4991454;28;20054;-53
2022/05/24 13:08:21;;;;;;;1.08;0.77;;;;;;;;;;4991958;28;20117;-52
2022/05/24 13:10:48;;;;;;;2.03;0.60;;;;;;;;;;4991946;28;20502;-50
2022/05/24 13:13:20;;;;;;;0.63;0.50;;;;;;;;;;4991815;28;20115;-54
2022/05/24 13:15:56;;;;;;;1.45;0.73;;;;;;;;;;4991648;28;20520;-54
2022/05/24 13:18:34;;;;;;;1.98;0.80;;;;;;;;;;4991649;28;20046;-54
2022/05/24 13:21:06;;;;;;;1.30;0.60;;;;;;;;;;4990641;28;20788;-52
2022/05/24 13:23:36;;;;;;;1.23;0.60;;;;;;;;;;4991990;28;20056;-51
2022/05/24 13:26:08;;;;;;;2.28;0.80;;;;;;;;;;4991667;28;20057;-54
2022/05/24 13:28:40;;;;;;;1.30;0.63;;;;;;;;;;4991683;28;20047;-52
2022/05/24 13:34:00;;;;;;;44.38;22.92;;;;;;;;;;5011184;28;20034;-54
2022/05/24 13:36:31;;;;;;;8.40;4.18;;;;;;;;;;5010031;28;20401;-55
2022/05/24 13:39:01;;;;;;;2.33;1.40;;;;;;;;;;5012420;28;20080;-54
2022/05/24 13:41:45;;;;;;;5.30;0.77;;;;;;;;;;5015436;28;20049;-53
2022/05/24 13:44:35;;;;;;;4.20;0.82;;;;;;;;;;5014996;28;20128;-53
2022/05/24 13:47:09;;;;;;;1.33;0.70;;;;;;;;;;5014788;28;20327;-51
2022/05/24 13:49:43;;;;;;;1.45;0.60;;;;;;;;;;5015439;28;20494;-50
2022/05/24 13:52:44;;;;;;;1.92;0.82;;;;;;;;;;5014004;28;20042;-53
2022/05/24 13:55:22;;;;;;;1.25;0.70;;;;;;;;;;5003014;28;20062;-56
2022/05/24 13:57:54;;;;;;;0.93;0.60;;;;;;;;;;5015022;28;20053;-49
2022/05/24 14:00:35;;;;;;;1.55;0.82;;;;;;;;;;5014743;28;20124;-54
2022/05/24 14:03:44;;;;;;;1.77;0.73;;;;;;;;;;5014840;28;20060;-53
2022/05/24 14:06:21;;;;;;;2.22;0.80;;;;;;;;;;5014209;28;20142;-56
2022/05/24 14:08:51;;;;;;;1.65;0.60;;;;;;;;;;5014279;28;20042;-54
2022/05/24 14:11:23;;;;;;;3.45;0.70;;;;;;;;;;5014738;28;20563;-50
2022/05/24 14:13:51;;;;;;;1.83;0.65;;;;;;;;;;5014778;28;20042;-53
2022/05/24 14:16:21;;;;;;;1.15;0.60;;;;;;;;;;5014343;28;20440;-49
2022/05/24 14:18:49;;;;;;;1.77;0.60;;;;;;;;;;5014546;28;20048;-49
2022/05/24 14:21:21;;;;;;;2.20;0.60;;;;;;;;;;5014487;28;20054;-56
2022/05/24 14:23:50;;;;;;;0.88;0.70;;;;;;;;;;5014554;28;20037;-51
2022/05/24 14:26:17;;;;;;;2.13;0.60;;;;;;;;;;5014245;28;20508;-53
2022/05/24 14:28:45;;;;;;;1.95;1.20;;;;;;;;;;5013976;28;20034;-51
2022/05/24 14:31:14;;;;;;;1.88;0.90;;;;;;;;;;5014713;28;20723;-53
2022/05/24 14:33:41;;;;;;;3.45;1.73;;;;;;;;;;5014635;28;20527;-56
2022/05/24 14:36:09;;;;;;;3.08;0.90;;;;;;;;;;5013047;28;20528;-53
2022/05/24 14:38:36;;;;;;;2.10;0.90;;;;;;;;;;5014166;28;20133;-52
2022/05/24 14:41:21;;;;;;;1.52;0.88;;;;;;;;;;5014206;28;20497;-52
2022/05/24 14:44:00;;;;;;;1.60;0.70;;;;;;;;;;5014204;28;20042;-53
2022/05/24 14:46:29;;;;;;;1.48;0.77;;;;;;;;;;5013758;28;20589;-56
2022/05/24 14:48:58;;;;;;;1.80;0.77;;;;;;;;;;5013764;28;20050;-55
2022/05/24 14:51:40;;;;;;;1.55;0.75;;;;;;;;;;5013699;28;20053;-49
2022/05/24 14:54:08;;;;;;;1.98;0.60;;;;;;;;;;5014101;28;20042;-53
2022/05/24 14:56:37;;;;;;;1.70;0.82;;;;;;;;;;5013636;28;20046;-54
2022/05/24 14:59:06;;;;;;;1.58;0.70;;;;;;;;;;5013941;28;20041;-52
2022/05/24 15:01:34;;;;;;;3.92;0.80;;;;;;;;;;5013791;28;20065;-54
2022/05/24 15:04:01;;;;;;;1.58;0.90;;;;;;;;;;5013705;28;20472;-53
2022/05/24 15:06:29;;;;;;;2.45;0.90;;;;;;;;;;5013699;28;20042;-54
2022/05/24 15:17:22;;;;;;;2.05;1.00;;;;;;;;;;5013580;28;20042;-55
2022/05/24 15:19:50;;;;;;;1.35;0.80;;;;;;;;;;5013217;28;20049;-53
2022/05/24 15:22:18;;;;;;;0.85;0.60;;;;;;;;;;5013325;28;20485;-55
2022/05/24 15:24:45;;;;;;;1.05;0.70;;;;;;;;;;5013146;28;20050;-52
2022/05/24 15:27:14;;;;;;;3.63;0.80;;;;;;;;;;5013364;28;20125;-56
2022/05/24 15:29:42;;;;;;;1.83;0.60;;;;;;;;;;5013338;28;20084;-52
2022/05/24 15:32:10;;;;;;;2.33;0.70;;;;;;;;;;5013242;28;20042;-53
2022/05/24 15:34:38;;;;;;;5.03;2.72;;;;;;;;;;5013231;28;20045;-53
2022/05/24 15:37:08;;;;;;;2.95;1.00;;;;;;;;;;5013184;28;20038;-50
2022/05/24 15:39:35;;;;;;;1.65;0.73;;;;;;;;;;5012960;28;20073;-52
2022/05/24 15:42:06;;;;;;;1.85;0.98;;;;;;;;;;5012848;28;20065;-55
2022/05/24 15:44:36;;;;;;;3.85;1.58;;;;;;;;;;5012933;28;20040;-52
2022/05/24 15:47:05;;;;;;;2.03;0.75;;;;;;;;;;5012799;28;20169;-50
2022/05/24 15:49:32;;;;;;;2.28;1.20;;;;;;;;;;5012816;28;20505;-49
2022/05/24 15:52:00;;;;;;;4.43;1.30;;;;;;;;;;5012665;28;20563;-51
2022/05/24 15:54:28;;;;;;;2.53;1.20;;;;;;;;;;5012690;28;20520;-56
2022/05/24 15:56:55;;;;;;;4.55;0.90;;;;;;;;;;5012795;28;20068;-53
2022/05/24 15:59:22;;;;;;;3.67;0.98;;;;;;;;;;5012540;28;20505;-52
2022/05/24 16:01:51;;;;;;;1.85;0.70;;;;;;;;;;5011756;28;20081;-53
2022/05/24 16:10:02;;;;;;;3.92;1.13;;;;;;;;;;5012632;28;20049;-54
2022/05/24 16:10:06;;;;;;;1.52;0.80;;;;;;;;;;5012643;28;20050;-55
2022/05/24 16:12:39;;;;;;;1.92;0.80;;;;;;;;;;5012295;28;20052;-51